Time;durP1;ratioP1;P1;durP2;ratioP2;P2;SDS_P1;SDS_P2;PMS_P1;PMS_P2;Temp;Humidity;BMP_temperature;BMP_pressure;BME280_temperature;BME280_humidity;BME280_pressure;Samples;Min_cycle;Max_cycle;Signal;HPM_P1;HPM_P2
2022/06/18 00:01:33;;;;;;;6.27;5.97;;;;;;;23.01;92.93;99539.75;5050414;28;20680;-64
2022/06/18 00:04:02;;;;;;;6.97;6.57;;;;;;;23.13;92.81;99534.50;5044865;28;20240;-64
2022/06/18 00:06:31;;;;;;;7.30;6.80;;;;;;;23.09;93.45;99536.53;5049683;28;20231;-64
2022/06/18 00:08:59;;;;;;;8.40;7.80;;;;;;;23.16;94.03;99529.03;5048388;28;20196;-64
2022/06/18 00:14:10;;;;;;;6.80;6.43;;;;;;;23.25;94.03;99520.44;5050979;28;20691;-64
2022/06/18 00:16:37;;;;;;;7.13;6.73;;;;;;;23.27;93.36;99515.91;5050439;28;20201;-64
2022/06/18 00:19:05;;;;;;;8.43;6.83;;;;;;;23.27;93.58;99515.91;5042039;28;20219;-64
2022/06/18 00:21:32;;;;;;;6.73;6.40;;;;;;;23.27;93.28;99513.28;5045783;28;20262;-64
2022/06/18 00:23:59;;;;;;;6.40;6.10;;;;;;;23.23;92.61;99501.44;5040020;28;20212;-64
2022/06/18 00:26:26;;;;;;;6.03;5.70;;;;;;;23.30;92.69;99510.44;5050843;28;20200;-64
2022/06/18 00:28:53;;;;;;;6.33;6.00;;;;;;;23.31;93.38;99510.31;5050794;28;20205;-64
2022/06/18 00:31:20;;;;;;;6.73;6.33;;;;;;;23.34;93.24;99506.63;5047676;28;20197;-64
2022/06/18 00:33:47;;;;;;;5.70;5.40;;;;;;;23.35;93.25;99505.66;5050857;28;20200;-64
2022/06/18 00:36:18;;;;;;;6.30;5.83;;;;;;;23.35;94.85;99505.66;5041615;28;20196;-64
2022/06/18 00:38:47;;;;;;;7.03;6.43;;;;;;;23.28;96.14;99494.03;5023647;28;20268;-65
2022/06/18 00:41:19;;;;;;;6.43;6.13;;;;;;;23.21;97.21;99498.09;5021979;28;20205;-64
2022/06/18 00:43:51;;;;;;;6.83;6.43;;;;;;;23.17;97.23;99496.66;5022578;28;20209;-64
2022/06/18 00:46:25;;;;;;;7.07;6.70;;;;;;;23.11;97.56;99499.78;5030567;28;20661;-64
2022/06/18 00:48:57;;;;;;;6.43;6.13;;;;;;;23.01;97.37;99492.69;5034089;28;20225;-64
2022/06/18 00:51:31;;;;;;;7.43;7.07;;;;;;;23.00;97.65;99490.19;5032955;28;20197;-64
2022/06/18 00:54:06;;;;;;;6.27;5.97;;;;;;;22.98;97.58;99482.47;5032351;28;20202;-64
2022/06/18 00:56:38;;;;;;;7.33;6.93;;;;;;;22.97;98.86;99486.03;5029813;28;20197;-64
2022/06/18 00:59:13;;;;;;;6.77;6.37;;;;;;;22.75;100.00;99439.03;5034149;28;20628;-65
2022/06/18 01:01:44;;;;;;;7.70;7.27;;;;;;;22.80;100.00;99467.41;5024554;28;20216;-65
2022/06/18 01:04:26;;;;;;;7.80;7.23;;;;;;;22.74;100.00;99462.69;5033676;28;20212;-64
2022/06/18 01:07:01;;;;;;;8.23;7.73;;;;;;;22.73;100.00;99471.47;5031150;28;20573;-65
2022/06/18 01:09:28;;;;;;;7.37;6.87;;;;;;;22.71;100.00;99476.84;5028096;28;20205;-64
2022/06/18 01:11:57;;;;;;;6.97;6.57;;;;;;;22.71;100.00;99479.44;5033776;28;20205;-64
2022/06/18 01:14:25;;;;;;;8.03;7.63;;;;;;;22.69;100.00;99476.09;5033815;28;20193;-64
2022/06/18 01:16:55;;;;;;;8.00;7.50;;;;;;;22.71;100.00;99479.44;5021366;28;20204;-65
2022/06/18 01:19:29;;;;;;;8.33;7.83;;;;;;;22.68;100.00;99479.66;5022154;28;20644;-64
2022/06/18 01:22:07;;;;;;;8.20;7.70;;;;;;;22.71;99.63;99482.06;5021620;28;20211;-63
2022/06/18 01:24:38;;;;;;;8.27;7.80;;;;;;;22.73;100.00;99482.75;5033459;28;20239;-64
2022/06/18 01:27:06;;;;;;;8.20;7.70;;;;;;;22.73;99.79;99482.75;5024315;28;20251;-64
2022/06/18 01:29:34;;;;;;;8.13;7.53;;;;;;;22.77;99.64;99489.41;5025349;28;20667;-64
2022/06/18 01:32:02;;;;;;;8.73;7.97;;;;;;;22.83;98.94;99482.84;5025305;28;20255;-64
2022/06/18 01:34:30;;;;;;;7.87;7.47;;;;;;;22.81;98.73;99469.91;5022941;28;20284;-64
2022/06/18 01:37:00;;;;;;;8.07;7.67;;;;;;;22.85;98.52;99465.25;5035477;28;20220;-64
2022/06/18 01:39:31;;;;;;;8.23;7.73;;;;;;;22.89;98.78;99470.13;5053261;28;20209;-64
2022/06/18 01:42:05;;;;;;;8.47;7.77;;;;;;;22.94;98.04;99475.81;5053639;28;20258;-64
2022/06/18 01:44:40;;;;;;;11.10;8.53;;;;;;;23.00;98.57;99477.94;5041234;28;20259;-64
2022/06/18 01:47:12;;;;;;;8.27;7.77;;;;;;;22.93;98.09;99463.72;5053164;28;20238;-65
2022/06/18 01:49:42;;;;;;;8.27;7.77;;;;;;;22.98;97.93;99469.41;5048810;28;20197;-64
2022/06/18 01:52:10;;;;;;;7.77;7.37;;;;;;;22.95;97.94;99469.63;5043452;28;20287;-65
2022/06/18 01:54:51;;;;;;;7.20;6.80;;;;;;;22.95;98.39;99476.66;5043265;28;20201;-64
2022/06/18 01:57:25;;;;;;;7.63;7.13;;;;;;;22.90;97.59;99477.03;5052274;28;20208;-64
2022/06/18 01:59:56;;;;;;;7.93;7.33;;;;;;;22.85;97.92;99483.56;5049986;28;20668;-64
2022/06/18 02:02:22;;;;;;;6.50;6.10;;;;;;;22.80;97.53;99481.31;5048036;28;20576;-64
2022/06/18 02:04:49;;;;;;;7.20;6.83;;;;;;;22.69;98.16;99486.56;5039465;28;20262;-64
2022/06/18 02:07:18;;;;;;;8.43;7.93;;;;;;;22.66;98.24;99484.19;5052598;28;20295;-64
2022/06/18 02:09:49;;;;;;;7.60;7.07;;;;;;;22.63;98.46;99486.16;5044240;28;20193;-64
2022/06/18 02:12:20;;;;;;;8.50;7.80;;;;;;;22.59;98.63;99485.56;5041325;28;20201;-64
2022/06/18 02:14:51;;;;;;;7.63;7.07;;;;;;;22.54;98.61;99477.28;5052310;28;20197;-64
2022/06/18 02:17:19;;;;;;;7.13;6.73;;;;;;;22.58;99.29;99486.53;5042763;28;20673;-64
2022/06/18 02:19:50;;;;;;;6.13;5.83;;;;;;;22.59;98.89;99475.13;5040640;28;20217;-64
2022/06/18 02:22:18;;;;;;;8.77;6.93;;;;;;;22.59;99.21;99480.34;5049429;28;20557;-64
2022/06/18 02:24:45;;;;;;;8.07;7.50;;;;;;;22.59;99.75;99469.06;5049896;28;20695;-65
2022/06/18 02:27:14;;;;;;;6.90;6.50;;;;;;;22.58;99.44;99473.47;5052084;28;20203;-65
2022/06/18 02:29:44;;;;;;;7.00;6.70;;;;;;;22.52;100.00;99472.16;5052079;28;20197;-64
2022/06/18 02:32:22;;;;;;;7.63;7.13;;;;;;;22.53;100.00;99470.38;5038254;28;20209;-64
2022/06/18 02:34:49;;;;;;;8.37;7.87;;;;;;;22.52;100.00;99473.13;5038801;28;20209;-64
2022/06/18 02:37:23;;;;;;;7.67;7.27;;;;;;;22.43;100.00;99465.03;5048084;28;20588;-64
2022/06/18 02:39:58;;;;;;;7.63;7.23;;;;;;;22.47;100.00;99470.84;5049714;28;20235;-64
2022/06/18 02:42:27;;;;;;;7.17;6.60;;;;;;;22.43;100.00;99459.81;5047844;28;20227;-64
2022/06/18 02:44:55;;;;;;;7.83;7.33;;;;;;;22.45;100.00;99464.94;5051991;28;20196;-64
2022/06/18 02:47:22;;;;;;;7.47;6.93;;;;;;;22.33;100.00;99453.63;5047985;28;20203;-64
2022/06/18 02:49:55;;;;;;;7.40;6.90;;;;;;;22.42;100.00;99467.78;5042012;28;20307;-64
2022/06/18 02:52:26;;;;;;;7.97;7.57;;;;;;;22.40;100.00;99461.84;5044316;28;20204;-65
2022/06/18 02:55:01;;;;;;;8.07;7.67;;;;;;;22.36;100.00;99463.00;5048706;28;20692;-64
2022/06/18 02:57:29;;;;;;;8.23;7.83;;;;;;;22.31;100.00;99465.16;5051104;28;20266;-65
2022/06/18 02:59:58;;;;;;;8.43;7.83;;;;;;;22.33;100.00;99464.09;5049041;28;20758;-65
2022/06/18 03:02:25;;;;;;;8.97;7.47;;;;;;;22.35;100.00;99471.81;5037609;28;20200;-65
2022/06/18 03:04:52;;;;;;;8.50;7.70;;;;;;;22.38;100.00;99474.19;5047692;28;20201;-65
2022/06/18 03:07:19;;;;;;;8.13;7.63;;;;;;;22.40;100.00;99472.28;5036735;28;20250;-64
2022/06/18 03:12:30;;;;;;;8.33;7.73;;;;;;;22.45;100.00;99484.06;5039926;28;20209;-65
2022/06/18 03:14:58;;;;;;;8.30;7.77;;;;;;;22.41;100.00;99484.41;5048336;28;20201;-65
2022/06/18 03:17:25;;;;;;;8.13;7.73;;;;;;;22.41;100.00;99492.25;5051219;28;20258;-65
2022/06/18 03:19:56;;;;;;;8.37;7.77;;;;;;;22.40;100.00;99490.56;5049961;28;20282;-64
2022/06/18 03:22:23;;;;;;;15.43;8.03;;;;;;;22.43;100.00;99485.09;5044978;28;20220;-65
2022/06/18 03:24:50;;;;;;;7.90;7.47;;;;;;;22.39;100.00;99481.09;5041357;28;20675;-64
2022/06/18 03:27:18;;;;;;;10.87;9.23;;;;;;;22.39;100.00;99483.69;5048968;28;20208;-65
2022/06/18 03:29:46;;;;;;;9.20;8.30;;;;;;;22.25;100.00;99471.69;5041836;28;20216;-65
2022/06/18 03:32:14;;;;;;;9.27;8.57;;;;;;;22.37;100.00;99490.81;5051065;28;20291;-65
2022/06/18 03:34:41;;;;;;;8.67;8.17;;;;;;;22.39;100.00;99500.19;5047035;28;20198;-65
2022/06/18 03:37:08;;;;;;;10.33;9.53;;;;;;;22.42;100.00;99494.72;5048300;28;20232;-65
2022/06/18 03:39:35;;;;;;;8.47;7.97;;;;;;;22.42;100.00;99497.34;5033990;28;20220;-65
2022/06/18 03:42:02;;;;;;;9.80;9.10;;;;;;;22.47;100.00;99499.59;5051165;28;20201;-64
2022/06/18 03:44:29;;;;;;;8.47;8.07;;;;;;;22.48;100.00;99489.03;5045435;28;20209;-64
2022/06/18 03:46:56;;;;;;;8.80;8.20;;;;;;;22.56;100.00;99495.44;5050946;28;20197;-65
2022/06/18 03:49:28;;;;;;;8.90;8.30;;;;;;;22.68;100.00;99495.34;5050833;28;20250;-65
2022/06/18 03:51:56;;;;;;;7.50;7.10;;;;;;;22.80;100.00;99497.00;5042434;28;20204;-65
2022/06/18 03:54:23;;;;;;;7.90;7.50;;;;;;;22.89;100.00;99483.19;5047826;28;20208;-65
2022/06/18 03:56:49;;;;;;;7.97;7.47;;;;;;;23.09;100.00;99499.09;5046745;28;20204;-65
2022/06/18 03:59:16;;;;;;;9.40;7.07;;;;;;;23.21;100.00;99498.09;5044052;28;20213;-65
2022/06/18 04:01:44;;;;;;;8.23;7.47;;;;;;;23.34;99.47;99501.38;5050644;28;20209;-65
2022/06/18 04:04:12;;;;;;;7.00;6.60;;;;;;;23.48;96.51;99498.53;5034439;28;20562;-65
2022/06/18 04:06:42;;;;;;;7.37;6.97;;;;;;;23.67;96.00;99501.28;5050888;28;20669;-64
2022/06/18 04:09:10;;;;;;;11.60;7.60;;;;;;;23.82;94.10;99489.53;5050924;28;20201;-64
2022/06/18 04:11:37;;;;;;;7.60;7.20;;;;;;;23.84;91.92;99503.34;5044713;28;20204;-64
2022/06/18 04:14:04;;;;;;;7.27;6.70;;;;;;;23.87;93.21;99497.84;5043298;28;20207;-64
2022/06/18 04:16:31;;;;;;;6.80;6.50;;;;;;;23.94;92.85;99501.59;5038341;28;20205;-64
2022/06/18 04:18:58;;;;;;;6.77;6.27;;;;;;;24.08;92.01;99504.84;5036678;28;20198;-64
2022/06/18 04:21:25;;;;;;;6.60;6.30;;;;;;;24.20;92.04;99503.88;5040660;28;20201;-64
2022/06/18 04:23:53;;;;;;;7.20;6.70;;;;;;;24.27;90.02;99499.75;5043185;28;20197;-64
2022/06/18 04:26:20;;;;;;;8.20;7.67;;;;;;;24.44;89.67;99500.00;5044202;28;20196;-64
2022/06/18 04:28:47;;;;;;;7.63;7.03;;;;;;;24.44;86.84;99502.63;5045323;28;20197;-64
2022/06/18 04:31:14;;;;;;;7.13;6.57;;;;;;;24.46;85.73;99499.84;5040157;28;20208;-64
2022/06/18 04:33:41;;;;;;;7.97;7.47;;;;;;;24.35;86.64;99489.47;5045426;28;20197;-64
2022/06/18 04:36:19;;;;;;;6.83;6.47;;;;;;;24.28;85.79;99498.81;5044929;28;20631;-64
2022/06/18 04:38:45;;;;;;;7.43;7.07;;;;;;;24.11;86.41;99494.13;5054232;28;20216;-64
2022/06/18 04:41:14;;;;;;;7.17;6.80;;;;;;;23.98;86.02;99500.41;5054148;28;20311;-64
2022/06/18 04:43:40;;;;;;;7.03;6.63;;;;;;;23.77;87.64;99486.47;5044369;28;20550;-64
2022/06/18 04:46:07;;;;;;;6.80;6.13;;;;;;;23.76;87.16;99495.28;5054052;28;20208;-64
2022/06/18 04:48:34;;;;;;;7.07;6.47;;;;;;;23.49;88.36;99498.38;5053781;28;20196;-64
2022/06/18 04:51:01;;;;;;;7.27;6.87;;;;;;;23.37;89.58;99506.38;5053925;28;20201;-64
2022/06/18 04:53:28;;;;;;;6.67;6.33;;;;;;;23.21;90.42;99492.88;5053393;28;20215;-63
2022/06/18 04:55:54;;;;;;;6.97;6.67;;;;;;;23.24;89.94;99506.53;5052475;28;20189;-64
2022/06/18 04:58:23;;;;;;;7.27;6.87;;;;;;;23.30;90.29;99510.44;5053840;28;20204;-63
2022/06/18 05:00:50;;;;;;;13.30;6.70;;;;;;;23.26;89.42;99511.66;5045486;28;20217;-64
2022/06/18 05:03:20;;;;;;;7.10;6.47;;;;;;;23.19;90.13;99510.47;5054143;28;20228;-64
2022/06/18 05:05:48;;;;;;;6.60;6.30;;;;;;;23.11;90.24;99502.41;5042987;28;20271;-63
2022/06/18 05:08:15;;;;;;;7.70;7.30;;;;;;;23.16;90.50;99515.97;5053977;28;20197;-64
2022/06/18 05:10:41;;;;;;;7.60;7.20;;;;;;;23.19;91.63;99523.56;5053864;28;20668;-64
2022/06/18 05:13:09;;;;;;;8.13;7.63;;;;;;;23.20;90.61;99506.91;5053675;28;20208;-64
2022/06/18 05:15:38;;;;;;;7.70;7.10;;;;;;;23.35;90.81;99519.59;5051042;28;20204;-64
2022/06/18 05:18:06;;;;;;;6.90;6.30;;;;;;;23.31;90.02;99509.47;5053564;28;20197;-64
2022/06/18 05:20:32;;;;;;;7.30;6.83;;;;;;;23.40;91.63;99524.47;5051936;28;20212;-64
2022/06/18 05:22:59;;;;;;;7.73;7.23;;;;;;;23.55;91.15;99528.47;5044929;28;20596;-64
2022/06/18 05:25:26;;;;;;;6.97;6.60;;;;;;;23.79;91.23;99531.69;5053248;28;20193;-64
2022/06/18 05:27:53;;;;;;;6.83;6.50;;;;;;;23.92;89.42;99537.56;5046344;28;20201;-64
2022/06/18 05:30:25;;;;;;;7.83;6.60;;;;;;;24.07;88.27;99543.34;5053517;28;20189;-64
2022/06/18 05:32:53;;;;;;;6.03;5.83;;;;;;;24.16;87.51;99544.38;5050661;28;20200;-64
2022/06/18 05:35:21;;;;;;;8.50;7.90;;;;;;;24.37;87.02;99547.81;5049544;28;20197;-64
2022/06/18 05:37:50;;;;;;;6.67;6.27;;;;;;;24.56;84.61;99542.66;5053050;28;20224;-64
2022/06/18 05:40:18;;;;;;;6.87;6.47;;;;;;;24.60;83.83;99544.06;5052992;28;20739;-64
2022/06/18 05:42:44;;;;;;;7.03;6.40;;;;;;;24.63;83.46;99535.94;5053410;28;20246;-64
2022/06/18 05:45:12;;;;;;;5.77;5.43;;;;;;;24.73;84.32;99523.69;5047466;28;20197;-64
2022/06/18 05:47:39;;;;;;;6.33;5.93;;;;;;;24.66;85.02;99519.94;5052870;28;20220;-63
2022/06/18 05:50:12;;;;;;;6.37;6.07;;;;;;;24.86;84.26;99526.13;5045305;28;20204;-64
2022/06/18 05:52:39;;;;;;;6.60;6.30;;;;;;;25.22;82.41;99541.25;5053269;28;20205;-64
2022/06/18 05:55:07;;;;;;;5.53;5.33;;;;;;;25.55;79.91;99542.72;5052779;28;20208;-63
2022/06/18 05:57:34;;;;;;;6.20;5.83;;;;;;;25.90;81.83;99550.03;5043243;28;20272;-64
2022/06/18 06:00:06;;;;;;;6.00;5.60;;;;;;;26.05;75.27;99556.50;5053179;28;20696;-64
2022/06/18 06:02:33;;;;;;;5.80;5.50;;;;;;;26.13;77.05;99551.38;5049560;28;20208;-63
2022/06/18 06:04:59;;;;;;;5.80;5.30;;;;;;;26.35;75.71;99552.88;5050563;28;20292;-64
2022/06/18 06:07:28;;;;;;;5.77;5.57;;;;;;;26.71;75.36;99559.97;5052649;28;20207;-64
2022/06/18 06:12:39;;;;;;;5.53;5.23;;;;;;;27.29;75.16;99550.00;5052704;28;20246;-64
2022/06/18 06:15:08;;;;;;;6.00;5.50;;;;;;;27.55;72.31;99558.03;5045862;28;20196;-63
2022/06/18 06:17:35;;;;;;;4.93;4.73;;;;;;;27.62;69.54;99548.53;5048863;28;20208;-64
2022/06/18 06:20:03;;;;;;;5.53;5.13;;;;;;;27.94;68.32;99564.63;5044160;28;20220;-64
2022/06/18 06:22:31;;;;;;;5.10;4.77;;;;;;;28.01;66.62;99556.94;5052546;28;20228;-64
2022/06/18 06:24:58;;;;;;;5.20;4.90;;;;;;;28.09;64.95;99554.38;5052435;28;20201;-64
2022/06/18 06:27:25;;;;;;;5.10;4.90;;;;;;;28.26;65.95;99552.69;5042212;28;20588;-64
2022/06/18 06:29:52;;;;;;;4.80;4.60;;;;;;;28.49;62.01;99556.47;5041964;28;20200;-64
2022/06/18 06:32:19;;;;;;;5.33;4.43;;;;;;;28.69;63.66;99552.66;5052205;28;20576;-64
2022/06/18 06:34:46;;;;;;;4.60;4.20;;;;;;;28.78;61.26;99556.16;5052075;28;20211;-64
2022/06/18 06:37:12;;;;;;;4.87;4.63;;;;;;;28.81;61.09;99564.56;5051953;28;20232;-64
2022/06/18 06:39:40;;;;;;;4.23;4.07;;;;;;;28.92;60.26;99560.84;5045026;28;20201;-64
2022/06/18 06:42:07;;;;;;;4.90;4.70;;;;;;;28.94;60.18;99562.34;5051824;28;20204;-64
2022/06/18 06:44:34;;;;;;;5.03;4.83;;;;;;;28.91;61.42;99556.53;5039042;28;20205;-64
2022/06/18 06:47:01;;;;;;;4.70;4.50;;;;;;;29.06;60.15;99560.22;5051325;28;20213;-64
2022/06/18 06:49:28;;;;;;;4.97;4.70;;;;;;;28.96;61.43;99565.63;5051682;28;20203;-64
2022/06/18 06:51:55;;;;;;;5.90;5.50;;;;;;;28.73;61.62;99561.88;5051807;28;20193;-64
2022/06/18 06:54:22;;;;;;;5.27;4.97;;;;;;;28.55;62.95;99550.56;5045894;28;20196;-64
2022/06/18 06:59:34;;;;;;;4.87;4.67;;;;;;;28.63;62.59;99555.88;5051642;28;20199;-64
2022/06/18 07:02:02;;;;;;;5.40;5.00;;;;;;;28.78;62.53;99564.06;5039379;28;20197;-66
2022/06/18 07:04:30;;;;;;;4.73;4.53;;;;;;;28.89;60.90;99556.69;5051515;28;20193;-64
2022/06/18 07:06:57;;;;;;;4.23;4.03;;;;;;;28.88;60.78;99562.97;5049103;28;20254;-64
2022/06/18 07:09:24;;;;;;;5.00;4.60;;;;;;;28.71;60.14;99560.41;5051977;28;20233;-64
2022/06/18 07:11:53;;;;;;;4.50;4.30;;;;;;;28.43;61.08;99552.66;5041284;28;20554;-64
2022/06/18 07:14:20;;;;;;;4.87;4.47;;;;;;;28.43;61.46;99554.47;5044450;28;20751;-64
2022/06/18 07:16:50;;;;;;;5.07;4.87;;;;;;;28.24;63.71;99557.31;5036061;28;20208;-64
2022/06/18 07:19:17;;;;;;;4.87;4.67;;;;;;;28.44;65.50;99558.72;5051435;28;20204;-64
2022/06/18 07:21:44;;;;;;;5.17;4.97;;;;;;;28.72;63.07;99547.06;5041588;28;20224;-64
2022/06/18 07:24:11;;;;;;;3.67;3.57;;;;;;;29.03;58.94;99558.72;5051344;28;20196;-64
2022/06/18 07:26:38;;;;;;;5.23;4.67;;;;;;;29.31;61.34;99554.03;5042472;28;20696;-64
2022/06/18 07:29:06;;;;;;;4.27;3.97;;;;;;;29.70;56.47;99556.91;5045621;28;20193;-64
2022/06/18 07:31:35;;;;;;;4.00;3.83;;;;;;;29.91;55.97;99559.94;5051327;28;20193;-64
2022/06/18 07:34:05;;;;;;;3.83;3.63;;;;;;;30.00;54.75;99563.38;5042368;28;20719;-64
2022/06/18 07:36:33;;;;;;;4.00;3.70;;;;;;;30.03;54.48;99561.25;5048516;28;20204;-64
2022/06/18 07:39:01;;;;;;;3.70;3.60;;;;;;;30.28;54.60;99556.75;5048115;28;20632;-64
2022/06/18 07:41:34;;;;;;;5.85;3.75;;;;;;;30.60;55.28;99569.09;5045110;28;20659;-64
2022/06/18 07:44:02;;;;;;;4.05;3.85;;;;;;;30.71;53.17;99544.91;5051094;28;20669;-64
2022/06/18 07:46:31;;;;;;;4.20;3.90;;;;;;;30.93;52.87;99573.28;5048732;28;20207;-64
2022/06/18 07:48:57;;;;;;;4.35;3.95;;;;;;;31.24;51.24;99557.47;5051169;28;20675;-64
2022/06/18 07:51:26;;;;;;;3.80;3.50;;;;;;;31.42;48.69;99562.47;5042718;28;20193;-64
2022/06/18 07:53:53;;;;;;;3.53;3.33;;;;;;;31.59;49.32;99550.81;5044874;28;20231;-64
2022/06/18 07:56:20;;;;;;;3.33;3.22;;;;;;;31.62;49.92;99550.44;5044155;28;20192;-64
2022/06/18 07:58:47;;;;;;;3.70;3.60;;;;;;;31.65;48.72;99563.34;5055177;28;20208;-64
2022/06/18 08:01:14;;;;;;;4.20;4.00;;;;;;;31.47;48.06;99566.25;5042467;28;20221;-64
2022/06/18 08:03:42;;;;;;;3.65;3.47;;;;;;;31.46;49.06;99561.13;5050295;28;20203;-64
2022/06/18 08:06:10;;;;;;;4.22;4.00;;;;;;;31.46;48.40;99555.81;5050606;28;20243;-64
2022/06/18 08:08:37;;;;;;;4.63;4.43;;;;;;;31.26;48.38;99566.03;5054792;28;20213;-64
2022/06/18 08:11:06;;;;;;;3.92;3.72;;;;;;;30.83;49.58;99570.03;5039913;28;20665;-64
2022/06/18 08:13:33;;;;;;;4.43;4.10;;;;;;;30.69;51.44;99566.28;5055027;28;20204;-64
2022/06/18 08:16:00;;;;;;;3.60;3.50;;;;;;;30.83;50.07;99564.72;5047812;28;20205;-64
2022/06/18 08:18:27;;;;;;;3.90;3.70;;;;;;;30.87;50.14;99568.69;5054697;28;20197;-64
2022/06/18 08:20:55;;;;;;;4.63;4.43;;;;;;;30.58;49.00;99568.44;5041585;28;20209;-63
2022/06/18 08:23:22;;;;;;;4.20;4.00;;;;;;;30.14;50.57;99568.03;5050303;28;20680;-64
2022/06/18 08:25:49;;;;;;;3.97;3.78;;;;;;;30.02;50.03;99564.88;5049039;28;20757;-64
2022/06/18 08:28:16;;;;;;;4.53;4.22;;;;;;;30.06;51.28;99555.63;5054486;28;20196;-64
2022/06/18 08:30:44;;;;;;;4.25;4.10;;;;;;;29.91;50.99;99562.56;5054738;28;20197;-64
2022/06/18 08:33:11;;;;;;;4.45;4.10;;;;;;;29.83;52.53;99559.91;5054426;28;20196;-64
2022/06/18 08:35:38;;;;;;;4.25;4.05;;;;;;;29.56;53.52;99542.56;5045977;28;20680;-64
2022/06/18 08:38:08;;;;;;;4.20;3.90;;;;;;;29.54;55.77;99543.69;5047664;28;20374;-64
2022/06/18 08:40:52;;;;;;;4.43;4.22;;;;;;;29.56;55.27;99534.63;5051778;28;20221;-64
2022/06/18 08:43:47;;;;;;;4.25;3.90;;;;;;;29.94;55.40;99556.97;5053062;28;20252;-64
2022/06/18 08:46:24;;;;;;;4.57;4.32;;;;;;;30.05;53.26;99559.25;5036749;28;20212;-64
2022/06/18 08:49:14;;;;;;;4.07;3.88;;;;;;;29.76;54.16;99553.59;5054289;28;20211;-64
2022/06/18 08:51:51;;;;;;;3.70;3.58;;;;;;;29.60;54.55;99540.38;5054048;28;20216;-64
2022/06/18 08:54:31;;;;;;;4.43;4.22;;;;;;;29.74;53.38;99547.66;5050278;28;20672;-61
2022/06/18 08:57:02;;;;;;;4.50;4.30;;;;;;;29.71;55.33;99542.72;5053742;28;20207;-64
2022/06/18 08:59:41;;;;;;;4.57;4.38;;;;;;;29.94;56.14;99546.38;5050856;28;21394;-70
2022/06/18 09:02:21;;;;;;;4.53;4.22;;;;;;;29.86;52.86;99543.72;5052971;28;20231;-67
2022/06/18 09:05:07;;;;;;;5.03;4.72;;;;;;;29.74;53.85;99542.38;5052267;28;20435;-71
2022/06/18 09:07:55;;;;;;;4.35;4.05;;;;;;;29.80;53.42;99533.78;5052283;28;20199;-71
2022/06/18 09:10:30;;;;;;;3.90;3.70;;;;;;;29.86;54.27;99525.22;5046573;28;20197;-71
2022/06/18 09:13:01;;;;;;;4.35;4.15;;;;;;;30.04;56.33;99525.88;5031386;28;20205;-71
2022/06/18 09:15:34;;;;;;;4.63;4.43;;;;;;;30.00;55.77;99502.56;5050935;28;20197;-71
2022/06/18 09:18:07;;;;;;;4.72;4.43;;;;;;;30.11;56.88;99526.03;5050798;28;20882;-71
2022/06/18 09:20:39;;;;;;;4.68;4.38;;;;;;;30.07;55.64;99528.19;5053464;28;20197;-71
2022/06/18 09:23:14;;;;;;;5.38;5.00;;;;;;;29.78;55.34;99509.34;5046382;28;20201;-70
2022/06/18 09:25:47;;;;;;;5.07;4.80;;;;;;;29.25;55.13;99508.97;5037060;28;20197;-70
2022/06/18 09:28:21;;;;;;;5.03;4.82;;;;;;;28.89;57.35;99532.09;5050843;28;20204;-70
2022/06/18 09:30:53;;;;;;;5.60;5.20;;;;;;;28.49;60.93;99535.38;5052801;28;20196;-69
2022/06/18 09:33:25;;;;;;;5.37;5.07;;;;;;;28.42;61.88;99550.16;5052943;28;20701;-68
2022/06/18 09:35:56;;;;;;;5.30;4.80;;;;;;;28.31;60.84;99553.88;5052472;28;20620;-68
2022/06/18 09:38:28;;;;;;;5.30;5.07;;;;;;;27.84;61.04;99549.88;5050512;28;20118;-63
2022/06/18 09:41:00;;;;;;;4.93;4.73;;;;;;;27.96;62.25;99559.19;5049741;28;20224;-63
2022/06/18 09:43:36;;;;;;;5.27;4.87;;;;;;;28.03;61.78;99550.53;5050882;28;20204;-64
2022/06/18 09:46:08;;;;;;;4.57;4.37;;;;;;;27.71;59.30;99566.06;5050745;28;20208;-63
2022/06/18 09:48:34;;;;;;;4.80;4.53;;;;;;;27.56;60.32;99562.31;5039783;28;20201;-63
2022/06/18 09:51:05;;;;;;;4.57;4.17;;;;;;;27.40;60.15;99554.22;5052271;28;20197;-64
2022/06/18 09:53:36;;;;;;;5.40;5.05;;;;;;;27.13;63.69;99553.28;5048019;28;20188;-68
2022/06/18 09:56:09;;;;;;;4.70;4.40;;;;;;;27.13;63.63;99566.44;5052233;28;20209;-67
2022/06/18 09:58:42;;;;;;;7.33;5.40;;;;;;;26.96;65.28;99580.38;5050973;28;20192;-67
2022/06/18 10:01:14;;;;;;;3.40;3.10;;;;;;;26.26;59.20;99595.78;5051930;28;20224;-68
2022/06/18 10:09:20;;;;;;;3.80;3.60;;;;;;;25.31;67.28;99607.84;5052331;28;20207;-68
2022/06/18 10:11:49;;;;;;;2.87;2.77;;;;;;;25.15;62.60;99628.50;5052113;28;20689;-68
2022/06/18 10:14:19;;;;;;;2.80;2.70;;;;;;;24.96;63.11;99640.59;5052288;28;20223;-68
2022/06/18 10:16:57;;;;;;;3.07;2.97;;;;;;;24.92;62.21;99649.69;5052454;28;20728;-67
2022/06/18 10:19:38;;;;;;;5.07;2.87;;;;;;;25.12;65.21;99660.25;5051850;28;20219;-67
2022/06/18 10:22:15;;;;;;;2.80;2.70;;;;;;;25.11;70.79;99659.44;5051902;28;20217;-68
2022/06/18 10:24:53;;;;;;;4.20;3.93;;;;;;;25.12;77.37;99665.50;5052038;28;20691;-68
2022/06/18 10:27:31;;;;;;;4.10;3.83;;;;;;;25.01;81.83;99680.38;5051897;28;20676;-68
2022/06/18 10:30:03;;;;;;;4.13;3.93;;;;;;;24.59;81.48;99672.66;5051615;28;20596;-68
2022/06/18 10:32:42;;;;;;;3.60;3.40;;;;;;;24.55;81.78;99688.66;5038336;28;20580;-68
2022/06/18 10:35:26;;;;;;;4.17;3.97;;;;;;;24.28;79.30;99663.88;5048609;28;20200;-68
2022/06/18 10:38:06;;;;;;;3.83;3.63;;;;;;;24.35;80.30;99686.00;5050609;28;20580;-68
2022/06/18 10:40:45;;;;;;;3.77;3.57;;;;;;;24.13;81.29;99689.56;5051150;28;20204;-68
2022/06/18 10:43:28;;;;;;;4.53;4.23;;;;;;;24.17;83.99;99692.75;5034722;28;20194;-68
2022/06/18 10:46:00;;;;;;;4.03;3.83;;;;;;;24.19;86.86;99690.84;5051062;28;20233;-67
2022/06/18 10:48:30;;;;;;;4.87;4.50;;;;;;;23.94;89.79;99645.63;5049774;28;20197;-67
2022/06/18 10:50:59;;;;;;;8.03;4.70;;;;;;;24.04;94.31;99698.09;5037537;28;20561;-67
2022/06/18 10:53:29;;;;;;;5.10;4.80;;;;;;;23.49;96.01;99709.50;5051680;28;20200;-69
2022/06/18 10:56:03;;;;;;;5.03;4.73;;;;;;;23.09;98.46;99708.31;5051325;28;20250;-69
2022/06/18 10:58:32;;;;;;;3.80;3.60;;;;;;;22.98;97.38;99709.94;5051328;28;20266;-68
2022/06/18 11:01:02;;;;;;;4.40;4.10;;;;;;;23.12;96.35;99705.44;5051120;28;20208;-68
2022/06/18 11:03:32;;;;;;;4.37;4.17;;;;;;;23.11;98.71;99701.16;5051250;28;20219;-69
2022/06/18 11:05:59;;;;;;;4.67;4.47;;;;;;;23.25;100.00;99711.41;5051212;28;20208;-68
2022/06/18 11:08:29;;;;;;;5.20;5.00;;;;;;;22.77;100.00;99708.97;5049271;28;20204;-69
2022/06/18 11:11:01;;;;;;;4.23;4.00;;;;;;;22.81;100.00;99702.53;5051324;28;20197;-68
2022/06/18 11:13:32;;;;;;;4.17;3.97;;;;;;;22.99;100.00;99718.63;5051150;28;20209;-69
2022/06/18 11:16:15;;;;;;;4.00;3.73;;;;;;;23.22;100.00;99724.72;5050759;28;20262;-68
2022/06/18 11:18:53;;;;;;;4.70;4.30;;;;;;;23.25;100.00;99711.41;5051026;28;20600;-69
2022/06/18 11:21:32;;;;;;;4.70;4.37;;;;;;;23.40;100.00;99725.94;5050930;28;20212;-69
2022/06/18 11:24:02;;;;;;;5.07;4.77;;;;;;;23.42;99.17;99724.88;5038121;28;20208;-70
2022/06/18 11:26:30;;;;;;;5.77;5.43;;;;;;;23.41;99.52;99722.38;5039213;28;20201;-70
2022/06/18 11:29:04;;;;;;;5.70;5.33;;;;;;;23.45;100.00;99721.19;5034688;28;20580;-70
2022/06/18 11:31:34;;;;;;;6.47;5.57;;;;;;;23.36;100.00;99709.59;5049764;28;20212;-69
2022/06/18 11:34:04;;;;;;;6.13;5.07;;;;;;;23.18;100.00;99720.66;5050816;28;20211;-69
2022/06/18 11:36:46;;;;;;;5.33;4.93;;;;;;;22.97;100.00;99700.44;5050015;28;20205;-69
2022/06/18 11:39:35;;;;;;;5.33;5.00;;;;;;;22.77;100.00;99703.75;5050493;28;20207;-68
2022/06/18 11:42:09;;;;;;;5.37;5.07;;;;;;;22.37;100.00;99690.19;5050924;28;20274;-68
2022/06/18 11:44:42;;;;;;;5.07;4.67;;;;;;;22.13;100.00;99685.94;5050951;28;20204;-68
2022/06/18 11:47:16;;;;;;;5.53;5.13;;;;;;;21.93;100.00;99688.22;5050765;28;20200;-68
2022/06/18 11:49:48;;;;;;;6.47;5.93;;;;;;;21.86;100.00;99694.78;5050933;28;20224;-68
2022/06/18 11:52:21;;;;;;;5.30;5.00;;;;;;;21.73;100.00;99690.53;5050924;28;20196;-68
2022/06/18 11:55:00;;;;;;;5.60;5.20;;;;;;;21.85;100.00;99684.44;5051177;28;20682;-68
2022/06/18 11:57:34;;;;;;;6.27;5.87;;;;;;;21.90;100.00;99691.03;5050729;28;20609;-67
2022/06/18 12:00:12;;;;;;;5.50;5.13;;;;;;;22.15;100.00;99694.47;5050775;28;20199;-67
2022/06/18 12:02:48;;;;;;;5.47;5.00;;;;;;;22.23;100.00;99702.59;5051150;28;20219;-67